createdAt,value
2019-04-04T00:00:30.307Z,995.41
2019-04-04T00:01:30.321Z,995.42
2019-04-04T00:02:30.346Z,995.43
2019-04-04T00:03:30.364Z,995.39
2019-04-04T00:04:30.385Z,995.43
2019-04-04T00:05:30.402Z,995.4
2019-04-04T00:06:30.421Z,995.38
2019-04-04T00:07:30.446Z,995.38
2019-04-04T00:08:31.549Z,995.38
2019-04-04T00:09:31.153Z,995.34
2019-04-04T00:10:30.501Z,995.32
2019-04-04T00:11:30.525Z,995.29
2019-04-04T00:12:30.540Z,995.32
2019-04-04T00:13:30.561Z,995.38
2019-04-04T00:14:30.586Z,995.36
2019-04-04T00:16:30.620Z,995.4
2019-04-04T00:17:30.643Z,995.37
2019-04-04T00:18:30.660Z,995.37
2019-04-04T00:19:30.697Z,995.41
2019-04-04T00:20:31.752Z,995.38
2019-04-04T00:21:31.976Z,995.37
2019-04-04T00:22:30.742Z,995.36
2019-04-04T00:23:30.761Z,995.36
2019-04-04T00:24:30.778Z,995.35
2019-04-04T00:25:30.802Z,995.35
2019-04-04T00:26:30.816Z,995.39
2019-04-04T00:27:30.840Z,995.39
2019-04-04T00:28:30.862Z,995.37
2019-04-04T00:29:30.880Z,995.32
2019-04-04T00:30:30.895Z,995.37
2019-04-04T00:32:30.937Z,995.29
2019-04-04T00:33:30.960Z,995.33
2019-04-04T00:34:30.974Z,995.33
2019-04-04T00:35:31.666Z,995.32
2019-04-04T00:36:33.694Z,995.27
2019-04-04T00:37:31.032Z,995.29
2019-04-04T00:38:31.059Z,995.23
2019-04-04T00:39:31.071Z,995.21
2019-04-04T00:40:31.097Z,995.24
2019-04-04T00:41:31.110Z,995.22
2019-04-04T00:42:31.134Z,995.21
2019-04-04T00:43:31.154Z,995.18
2019-04-04T00:44:31.170Z,995.18
2019-04-04T00:45:31.293Z,995.16
2019-04-04T00:47:32.514Z,995.11
2019-04-04T00:48:32.123Z,995.16
2019-04-04T00:49:31.271Z,995.1
2019-04-04T00:50:31.293Z,995.08
2019-04-04T00:51:31.307Z,995.11
2019-04-04T00:52:31.330Z,995.09
2019-04-04T00:53:31.345Z,995.09
2019-04-04T00:54:31.369Z,995.08
2019-04-04T00:55:31.389Z,995.04
2019-04-04T00:56:31.405Z,995.05
2019-04-04T00:57:31.422Z,995.06
2019-04-04T00:58:31.447Z,995.06
2019-04-04T00:59:31.461Z,995.02
2019-04-04T01:00:31.511Z,995.02
2019-04-04T01:01:31.600Z,994.97
2019-04-04T01:02:31.524Z,995
2019-04-04T01:03:31.538Z,994.96
2019-04-04T01:04:31.839Z,995.03
2019-04-04T01:05:32.014Z,994.94
2019-04-04T01:06:31.846Z,994.92
2019-04-04T01:07:31.623Z,994.9
2019-04-04T01:08:31.635Z,994.9
2019-04-04T01:09:31.659Z,994.89
2019-04-04T01:10:31.674Z,994.86
2019-04-04T01:11:31.699Z,994.85
2019-04-04T01:12:31.712Z,994.89
2019-04-04T01:13:31.738Z,994.85
2019-04-04T01:14:31.750Z,994.9
2019-04-04T01:15:31.931Z,994.85
2019-04-04T01:16:33.309Z,994.83
2019-04-04T01:17:32.991Z,994.83
2019-04-04T01:19:31.847Z,994.89
2019-04-04T01:20:31.870Z,994.91
2019-04-04T01:21:31.890Z,994.88
2019-04-04T01:22:31.904Z,994.84
2019-04-04T01:23:31.927Z,994.84
2019-04-04T01:24:31.949Z,994.85
2019-04-04T01:25:32.716Z,994.88
2019-04-04T01:26:33.074Z,994.87
2019-04-04T01:27:32.000Z,994.86
2019-04-04T01:28:32.025Z,994.87
2019-04-04T01:29:32.043Z,994.83
2019-04-04T01:30:32.061Z,994.86
2019-04-04T01:31:32.077Z,994.85
2019-04-04T01:32:32.099Z,994.85
2019-04-04T01:33:32.115Z,994.87
2019-04-04T01:35:32.152Z,994.83
2019-04-04T01:36:32.176Z,994.82
2019-04-04T01:37:32.194Z,994.84
2019-04-04T01:38:32.210Z,994.85
2019-04-04T01:39:32.232Z,994.84
2019-04-04T01:40:33.581Z,994.85
2019-04-04T01:41:32.285Z,994.89
2019-04-04T01:42:32.285Z,994.89
2019-04-04T01:43:32.308Z,994.89
2019-04-04T01:44:32.327Z,994.85
2019-04-04T01:45:32.342Z,994.85
2019-04-04T01:46:32.367Z,994.86
2019-04-04T01:47:32.386Z,994.82
2019-04-04T01:48:32.399Z,994.86
2019-04-04T01:49:32.422Z,994.82
2019-04-04T01:51:32.457Z,994.86
2019-04-04T01:52:32.483Z,994.89
2019-04-04T01:53:32.494Z,994.86
2019-04-04T01:54:32.779Z,994.9
2019-04-04T01:55:32.909Z,994.86
2019-04-04T01:56:32.557Z,994.84
2019-04-04T01:57:32.573Z,994.86
2019-04-04T01:58:32.589Z,994.86
2019-04-04T01:59:32.611Z,994.86
2019-04-04T02:00:32.626Z,994.86
2019-04-04T02:01:32.650Z,994.88
2019-04-04T02:02:32.664Z,994.88
2019-04-04T02:03:32.687Z,994.9
2019-04-04T02:04:32.705Z,994.88
2019-04-04T02:05:32.724Z,994.9
2019-04-04T02:07:32.763Z,994.92
2019-04-04T02:08:32.777Z,994.89
2019-04-04T02:09:34.522Z,994.85
2019-04-04T02:10:34.471Z,994.86
2019-04-04T02:11:32.839Z,994.86
2019-04-04T02:12:32.857Z,994.81
2019-04-04T02:13:32.871Z,994.81
2019-04-04T02:14:32.894Z,994.85
2019-04-04T02:15:32.912Z,994.85
2019-04-04T02:16:32.931Z,994.87
2019-04-04T02:17:32.946Z,994.9
2019-04-04T02:18:32.971Z,994.92
2019-04-04T02:19:32.983Z,994.96
2019-04-04T02:20:33.002Z,994.91
2019-04-04T02:22:33.041Z,994.95
2019-04-04T02:23:33.063Z,994.95
2019-04-04T02:24:33.080Z,994.96
2019-04-04T02:25:34.064Z,994.98
2019-04-04T02:26:34.071Z,994.98
2019-04-04T02:27:33.133Z,994.99
2019-04-04T02:28:33.152Z,995.01
2019-04-04T02:29:33.176Z,994.99
2019-04-04T02:30:33.195Z,995.02
2019-04-04T02:31:33.209Z,995.02
2019-04-04T02:32:33.231Z,995.01
2019-04-04T02:33:33.328Z,994.99
2019-04-04T02:34:37.373Z,994.98
2019-04-04T02:35:33.383Z,994.92
2019-04-04T02:36:33.313Z,994.87
2019-04-04T02:37:33.326Z,994.84
2019-04-04T02:38:33.367Z,994.79
2019-04-04T02:39:35.233Z,994.81
2019-04-04T02:40:33.377Z,994.78
2019-04-04T02:41:33.400Z,994.71
2019-04-04T02:42:33.414Z,994.69
2019-04-04T02:43:33.437Z,994.71
2019-04-04T02:44:33.452Z,994.72
2019-04-04T02:45:35.578Z,994.7
2019-04-04T02:46:33.493Z,994.68
2019-04-04T02:47:33.515Z,994.69
2019-04-04T02:48:33.528Z,994.71
2019-04-04T02:49:33.550Z,994.74
2019-04-04T02:50:35.490Z,994.74
2019-04-04T02:51:33.590Z,994.72
2019-04-04T02:52:33.600Z,994.72
2019-04-04T02:54:33.641Z,994.66
2019-04-04T02:55:33.656Z,994.68
2019-04-04T02:56:35.948Z,994.64
2019-04-04T02:57:33.695Z,994.57
2019-04-04T02:58:33.716Z,994.56
2019-04-04T02:59:33.729Z,994.57
2019-04-04T03:00:33.751Z,994.58
2019-04-04T03:01:33.771Z,994.62
2019-04-04T03:02:36.050Z,994.65
2019-04-04T03:03:33.802Z,994.72
2019-04-04T03:04:33.822Z,994.7
2019-04-04T03:05:33.845Z,994.73
2019-04-04T03:06:33.866Z,994.74
2019-04-04T03:07:33.881Z,994.75
2019-04-04T03:08:36.477Z,994.71
2019-04-04T03:10:33.941Z,994.67
2019-04-04T03:11:33.955Z,994.67
2019-04-04T03:12:33.969Z,994.68
2019-04-04T03:13:33.996Z,994.66
2019-04-04T03:14:37.244Z,994.69
2019-04-04T03:15:34.029Z,994.76
2019-04-04T03:16:34.043Z,994.75
2019-04-04T03:17:34.066Z,994.75
2019-04-04T03:18:34.714Z,994.68
2019-04-04T03:19:34.098Z,994.71
2019-04-04T03:20:34.133Z,994.71
2019-04-04T03:21:34.136Z,994.77
2019-04-04T03:22:34.156Z,994.78
2019-04-04T03:23:34.173Z,994.82
2019-04-04T03:24:34.194Z,994.77
2019-04-04T03:26:34.224Z,994.74
2019-04-04T03:27:34.247Z,994.7
2019-04-04T03:28:34.262Z,994.65
2019-04-04T03:29:37.132Z,994.69
2019-04-04T03:30:34.329Z,994.64
2019-04-04T03:31:37.069Z,994.65
2019-04-04T03:32:34.340Z,994.64
2019-04-04T03:33:34.360Z,994.62
2019-04-04T03:34:34.380Z,994.64
2019-04-04T03:35:34.390Z,994.67
2019-04-04T03:36:34.413Z,994.65
2019-04-04T03:37:34.448Z,994.66
2019-04-04T03:38:34.445Z,994.67
2019-04-04T03:39:34.467Z,994.69
2019-04-04T03:40:34.481Z,994.68
2019-04-04T03:42:34.521Z,994.67
2019-04-04T03:43:34.536Z,994.67
2019-04-04T03:44:34.556Z,994.67
2019-04-04T03:45:34.575Z,994.71
2019-04-04T03:46:38.549Z,994.7
2019-04-04T03:47:34.608Z,994.68
2019-04-04T03:48:34.630Z,994.69
2019-04-04T03:49:34.645Z,994.66
2019-04-04T03:50:34.707Z,994.65
2019-04-04T03:51:36.912Z,994.65
2019-04-04T03:52:34.703Z,994.66
2019-04-04T03:53:34.721Z,994.63
2019-04-04T03:54:34.737Z,994.65
2019-04-04T03:55:34.755Z,994.71
2019-04-04T03:57:34.792Z,994.72
2019-04-04T03:58:34.813Z,994.7
2019-04-04T03:59:34.829Z,994.71
2019-04-04T04:00:39.019Z,994.7
2019-04-04T04:01:34.863Z,994.68
2019-04-04T04:02:34.880Z,994.69
2019-04-04T04:03:34.904Z,994.65
2019-04-04T04:04:34.925Z,994.68
2019-04-04T04:05:36.288Z,994.7
2019-04-04T04:06:34.963Z,994.69
2019-04-04T04:07:34.971Z,994.62
2019-04-04T04:08:34.996Z,994.67
2019-04-04T04:09:35.007Z,994.69
2019-04-04T04:10:35.039Z,994.65
2019-04-04T04:11:37.344Z,994.67
2019-04-04T04:12:35.062Z,994.62
2019-04-04T04:13:35.083Z,994.63
2019-04-04T04:14:35.098Z,994.64
2019-04-04T04:15:35.120Z,994.64
2019-04-04T04:16:36.143Z,994.64
2019-04-04T04:17:36.341Z,994.69
2019-04-04T04:18:35.170Z,994.66
2019-04-04T04:19:35.187Z,994.66
2019-04-04T04:20:37.334Z,994.65
2019-04-04T04:21:35.226Z,994.62
2019-04-04T04:22:35.248Z,994.6
2019-04-04T04:23:35.260Z,994.64
2019-04-04T04:24:35.279Z,994.62
2019-04-04T04:25:36.632Z,994.54
2019-04-04T04:26:35.316Z,994.58
2019-04-04T04:27:35.330Z,994.6
2019-04-04T04:29:35.371Z,994.59
2019-04-04T04:30:39.136Z,994.6
2019-04-04T04:31:35.402Z,994.6
2019-04-04T04:32:37.185Z,994.65
2019-04-04T04:33:35.439Z,994.62
2019-04-04T04:34:35.456Z,994.64
2019-04-04T04:35:40.520Z,994.62
2019-04-04T04:36:35.497Z,994.64
2019-04-04T04:37:35.509Z,994.56
2019-04-04T04:38:35.531Z,994.59
2019-04-04T04:39:38.743Z,994.58
2019-04-04T04:40:35.569Z,994.52
2019-04-04T04:41:35.582Z,994.54
2019-04-04T04:42:35.599Z,994.54
2019-04-04T04:43:35.619Z,994.51
2019-04-04T04:45:35.656Z,994.55
2019-04-04T04:46:35.672Z,994.49
2019-04-04T04:47:35.692Z,994.52
2019-04-04T04:48:35.705Z,994.48
2019-04-04T04:49:36.322Z,994.44
2019-04-04T04:50:35.745Z,994.49
2019-04-04T04:51:35.758Z,994.45
2019-04-04T04:52:35.781Z,994.47
2019-04-04T04:53:35.793Z,994.5
2019-04-04T04:54:35.820Z,994.52
2019-04-04T04:55:35.829Z,994.5
2019-04-04T04:56:35.853Z,994.48
2019-04-04T04:57:37.004Z,994.49
2019-04-04T04:58:35.888Z,994.5
2019-04-04T04:59:35.901Z,994.49
2019-04-04T05:01:35.936Z,994.48
2019-04-04T05:02:35.958Z,994.5
2019-04-04T05:03:35.977Z,994.46
2019-04-04T05:04:35.996Z,994.45
2019-04-04T05:05:36.008Z,994.43
2019-04-04T05:06:36.346Z,994.42
2019-04-04T05:07:38.334Z,994.41
2019-04-04T05:08:36.062Z,994.44
2019-04-04T05:09:36.084Z,994.45
2019-04-04T05:10:36.098Z,994.45
2019-04-04T05:11:36.119Z,994.46
2019-04-04T05:12:36.136Z,994.45
2019-04-04T05:13:36.153Z,994.5
2019-04-04T05:14:36.174Z,994.55
2019-04-04T05:15:36.190Z,994.59
2019-04-04T05:17:36.241Z,994.67
2019-04-04T05:18:36.247Z,994.69
2019-04-04T05:19:36.260Z,994.67
2019-04-04T05:20:36.279Z,994.68
2019-04-04T05:21:36.326Z,994.62
2019-04-04T05:22:39.633Z,994.59
2019-04-04T05:23:36.344Z,994.7
2019-04-04T05:24:36.356Z,994.74
2019-04-04T05:25:49.674Z,994.76
2019-04-04T05:26:38.449Z,994.74
2019-04-04T05:27:37.138Z,994.76
2019-04-04T05:28:36.437Z,994.85
2019-04-04T05:29:36.455Z,994.86
2019-04-04T05:30:36.473Z,994.9
2019-04-04T05:32:36.514Z,995
2019-04-04T05:33:36.536Z,994.9
2019-04-04T05:34:36.576Z,994.85
2019-04-04T05:35:37.807Z,994.88
2019-04-04T05:36:37.008Z,994.88
2019-04-04T05:37:38.202Z,994.87
2019-04-04T05:38:36.647Z,994.89
2019-04-04T05:39:36.660Z,994.88
2019-04-04T05:40:36.681Z,994.86
2019-04-04T05:41:37.371Z,994.88
2019-04-04T05:42:36.732Z,994.88
2019-04-04T05:43:37.426Z,994.9
2019-04-04T05:44:36.773Z,994.89
2019-04-04T05:45:36.785Z,994.83
2019-04-04T05:46:36.807Z,994.85
2019-04-04T05:47:36.843Z,994.84
2019-04-04T05:48:36.849Z,994.84
2019-04-04T05:49:38.129Z,994.85
2019-04-04T05:50:36.888Z,994.95
2019-04-04T05:51:36.909Z,994.98
2019-04-04T05:52:36.936Z,994.93
2019-04-04T05:53:36.953Z,994.95
2019-04-04T05:54:38.919Z,995
2019-04-04T05:55:36.996Z,994.99
2019-04-04T05:56:37.024Z,995.07
2019-04-04T05:57:37.042Z,995.13
2019-04-04T05:58:37.094Z,995.1
2019-04-04T05:59:37.087Z,995.11
2019-04-04T06:00:37.110Z,995.2
2019-04-04T06:01:37.133Z,995.18
2019-04-04T06:02:37.162Z,995.25
2019-04-04T06:04:37.231Z,995.24
2019-04-04T06:05:37.232Z,995.3
2019-04-04T06:06:37.262Z,995.31
2019-04-04T06:07:37.336Z,995.3
2019-04-04T06:08:41.140Z,995.28
2019-04-04T06:09:37.331Z,995.25
2019-04-04T06:10:37.354Z,995.28
2019-04-04T06:11:37.375Z,995.4
2019-04-04T06:12:37.723Z,995.41
2019-04-04T06:13:37.424Z,995.47
2019-04-04T06:14:37.459Z,995.53
2019-04-04T06:15:37.475Z,995.58
2019-04-04T06:16:37.505Z,995.56
2019-04-04T06:17:39.095Z,995.57
2019-04-04T06:18:37.551Z,995.53
2019-04-04T06:20:37.606Z,995.59
2019-04-04T06:21:37.629Z,995.59
2019-04-04T06:22:37.660Z,995.59
2019-04-04T06:23:37.682Z,995.61
2019-04-04T06:24:37.708Z,995.65
2019-04-04T06:25:37.735Z,995.58
2019-04-04T06:26:38.126Z,995.61
2019-04-04T06:27:39.788Z,995.63
2019-04-04T06:28:37.815Z,995.71
2019-04-04T06:29:37.843Z,995.76
2019-04-04T06:30:43.293Z,995.8
2019-04-04T06:31:37.902Z,995.79
2019-04-04T06:32:38.936Z,995.79
2019-04-04T06:33:37.957Z,995.84
2019-04-04T06:34:37.985Z,995.89
2019-04-04T06:36:38.042Z,995.97
2019-04-04T06:37:38.639Z,996.03
2019-04-04T06:38:38.092Z,996.07
2019-04-04T06:39:38.127Z,996.18
2019-04-04T06:40:38.254Z,996.16
2019-04-04T06:41:38.180Z,996.2
2019-04-04T06:42:38.208Z,996.26
2019-04-04T06:43:41.336Z,996.26
2019-04-04T06:44:38.268Z,996.26
2019-04-04T06:45:38.295Z,996.22
2019-04-04T06:46:38.319Z,996.26
2019-04-04T06:47:38.353Z,996.27
2019-04-04T06:48:38.378Z,996.25
2019-04-04T06:49:38.408Z,996.22
2019-04-04T06:50:39.956Z,996.33
2019-04-04T06:52:38.495Z,996.33
2019-04-04T06:53:38.530Z,996.29
2019-04-04T06:54:38.553Z,996.31
2019-04-04T06:55:40.117Z,996.32
2019-04-04T06:56:38.618Z,996.24
2019-04-04T06:57:38.645Z,996.31
2019-04-04T06:58:40.183Z,996.2
2019-04-04T06:59:38.706Z,996.13
2019-04-04T07:00:41.674Z,996.12
2019-04-04T07:01:38.761Z,996.11
2019-04-04T07:02:38.794Z,996.06
2019-04-04T07:03:38.826Z,996.05
2019-04-04T07:04:38.853Z,995.97
2019-04-04T07:05:39.017Z,996
2019-04-04T07:07:38.939Z,995.97
2019-04-04T07:08:38.968Z,995.98
2019-04-04T07:09:38.999Z,995.96
2019-04-04T07:10:39.033Z,995.95
2019-04-04T07:11:39.064Z,995.9
2019-04-04T07:12:39.089Z,995.9
2019-04-04T07:13:42.493Z,995.84
2019-04-04T07:14:45.404Z,995.85
2019-04-04T07:15:46.456Z,995.83
2019-04-04T07:16:39.218Z,995.83
2019-04-04T07:17:40.238Z,995.87
2019-04-04T07:18:40.905Z,995.83
2019-04-04T07:19:39.298Z,995.81
2019-04-04T07:20:39.341Z,995.81
2019-04-04T07:21:39.364Z,995.8
2019-04-04T07:22:39.390Z,995.78
2019-04-04T07:23:41.791Z,995.74
2019-04-04T07:24:39.448Z,995.76
2019-04-04T07:25:39.783Z,995.7
2019-04-04T07:26:39.508Z,995.69
2019-04-04T07:27:39.545Z,995.65
2019-04-04T07:28:39.573Z,995.71
2019-04-04T07:29:39.599Z,995.6
2019-04-04T07:30:39.634Z,995.58
2019-04-04T07:31:39.664Z,995.62
2019-04-04T07:32:41.523Z,995.6
2019-04-04T07:33:42.561Z,995.46
2019-04-04T07:34:39.750Z,995.54
2019-04-04T07:35:39.783Z,995.47
2019-04-04T07:36:39.809Z,995.45
2019-04-04T07:37:39.843Z,995.4
2019-04-04T07:39:39.900Z,995.27
2019-04-04T07:40:39.930Z,995.26
2019-04-04T07:41:40.384Z,995.23
2019-04-04T07:42:40.365Z,995.28
2019-04-04T07:43:40.024Z,995.3
2019-04-04T07:44:40.051Z,995.25
2019-04-04T07:45:40.084Z,995.18
2019-04-04T07:46:41.137Z,995.06
2019-04-04T07:47:40.145Z,995.01
2019-04-04T07:48:40.173Z,995.1
2019-04-04T07:49:40.430Z,995.05
2019-04-04T07:50:40.229Z,995.07
2019-04-04T07:51:40.259Z,995.14
2019-04-04T07:52:40.292Z,995.13
2019-04-04T07:53:40.326Z,995.15
2019-04-04T07:55:42.165Z,994.98
2019-04-04T07:56:40.406Z,994.99
2019-04-04T07:57:40.440Z,994.96
2019-04-04T07:58:40.464Z,994.85
2019-04-04T07:59:40.496Z,994.84
2019-04-04T08:00:40.522Z,994.78
2019-04-04T08:01:50.580Z,994.81
2019-04-04T08:02:40.584Z,994.86
2019-04-04T08:03:40.611Z,994.86
2019-04-04T08:04:40.637Z,994.8
2019-04-04T08:05:40.665Z,994.73
2019-04-04T08:06:40.700Z,994.76
2019-04-04T08:07:40.722Z,994.76
2019-04-04T08:08:40.758Z,994.69
2019-04-04T08:09:40.787Z,994.7
2019-04-04T08:11:40.843Z,994.72
2019-04-04T08:12:40.870Z,994.69
2019-04-04T08:13:40.895Z,994.71
2019-04-04T08:14:40.927Z,994.67
2019-04-04T08:15:40.951Z,994.67
2019-04-04T08:16:40.983Z,994.66
2019-04-04T08:17:41.018Z,994.62
2019-04-04T08:18:41.039Z,994.6
2019-04-04T08:19:41.066Z,994.68
2019-04-04T08:20:41.089Z,994.69
2019-04-04T08:21:41.117Z,994.64
2019-04-04T08:22:41.144Z,994.66
2019-04-04T08:23:41.175Z,994.61
2019-04-04T08:24:41.200Z,994.6
2019-04-04T08:25:41.229Z,994.65
2019-04-04T08:27:41.289Z,994.65
2019-04-04T08:28:41.308Z,994.64
2019-04-04T08:29:41.334Z,994.59
2019-04-04T08:30:41.367Z,994.65
2019-04-04T08:31:41.389Z,994.6
2019-04-04T08:32:41.420Z,994.62
2019-04-04T08:33:41.496Z,994.63
2019-04-04T08:34:41.475Z,994.68
2019-04-04T08:35:41.499Z,994.69
2019-04-04T08:36:41.532Z,994.69
2019-04-04T08:37:41.557Z,994.66
2019-04-04T08:38:41.585Z,994.77
2019-04-04T08:39:41.608Z,994.72
2019-04-04T08:40:41.637Z,994.72
2019-04-04T08:42:41.693Z,994.72
2019-04-04T08:43:41.727Z,994.67
2019-04-04T08:44:41.748Z,994.68
2019-04-04T08:45:41.782Z,994.69
2019-04-04T08:46:41.805Z,994.63
2019-04-04T08:47:41.831Z,994.6
2019-04-04T08:48:41.860Z,994.69
2019-04-04T08:49:41.895Z,994.66
2019-04-04T08:50:41.921Z,994.68
2019-04-04T08:51:41.945Z,994.68
2019-04-04T08:52:41.977Z,994.67
2019-04-04T08:53:42.001Z,994.69
2019-04-04T08:54:42.030Z,994.7
2019-04-04T08:55:42.061Z,994.72
2019-04-04T08:56:42.093Z,994.64
2019-04-04T08:57:42.117Z,994.76
2019-04-04T08:58:42.143Z,994.78
2019-04-04T08:59:42.174Z,994.79
2019-04-04T09:00:42.199Z,994.76
2019-04-04T09:01:42.285Z,994.7
2019-04-04T09:02:42.257Z,994.74
2019-04-04T09:03:42.287Z,994.72
2019-04-04T09:04:42.365Z,994.7
2019-04-04T09:05:42.344Z,994.66
2019-04-04T09:06:42.368Z,994.68
2019-04-04T09:07:42.401Z,994.64
2019-04-04T09:08:42.429Z,994.57
2019-04-04T09:09:42.528Z,994.54
2019-04-04T09:10:42.482Z,994.54
2019-04-04T09:11:42.511Z,994.54
2019-04-04T09:12:42.542Z,994.55
2019-04-04T09:14:42.602Z,994.53
2019-04-04T09:15:42.624Z,994.51
2019-04-04T09:16:42.657Z,994.59
2019-04-04T09:17:42.680Z,994.53
2019-04-04T09:18:42.713Z,994.47
2019-04-04T09:19:42.742Z,994.52
2019-04-04T09:20:42.764Z,994.45
2019-04-04T09:21:42.793Z,994.45
2019-04-04T09:22:42.826Z,994.45
2019-04-04T09:23:42.850Z,994.44
2019-04-04T09:24:42.882Z,994.37
2019-04-04T09:25:42.910Z,994.43
2019-04-04T09:26:42.938Z,994.37
2019-04-04T09:27:42.963Z,994.41
2019-04-04T09:28:42.991Z,994.4
2019-04-04T09:30:43.049Z,994.43
2019-04-04T09:31:43.079Z,994.38
2019-04-04T09:32:43.105Z,994.47
2019-04-04T09:33:43.131Z,994.46
2019-04-04T09:34:43.163Z,994.53
2019-04-04T09:35:43.193Z,994.44
2019-04-04T09:36:43.215Z,994.42
2019-04-04T09:37:43.243Z,994.42
2019-04-04T09:38:43.271Z,994.4
2019-04-04T09:39:43.303Z,994.4
2019-04-04T09:40:43.327Z,994.43
2019-04-04T09:41:43.359Z,994.4
2019-04-04T09:42:43.381Z,994.41
2019-04-04T09:43:43.415Z,994.43
2019-04-04T09:44:43.437Z,994.4
2019-04-04T09:46:43.497Z,994.36
2019-04-04T09:47:43.520Z,994.36
2019-04-04T09:48:43.553Z,994.3
2019-04-04T09:49:43.579Z,994.34
2019-04-04T09:50:43.608Z,994.32
2019-04-04T09:51:43.631Z,994.3
2019-04-04T09:52:43.665Z,994.3
2019-04-04T09:53:52.657Z,994.3
2019-04-04T09:54:43.716Z,994.25
2019-04-04T09:55:43.746Z,994.26
2019-04-04T09:56:43.773Z,994.26
2019-04-04T09:57:43.801Z,994.29
2019-04-04T09:58:43.833Z,994.23
2019-04-04T09:59:43.861Z,994.22
2019-04-04T10:00:43.880Z,994.18
2019-04-04T10:02:43.938Z,994.24
2019-04-04T10:03:43.966Z,994.21
2019-04-04T10:04:43.990Z,994.18
2019-04-04T10:05:44.021Z,994.2
2019-04-04T10:06:44.048Z,994.22
2019-04-04T10:07:44.080Z,994.19
2019-04-04T10:08:44.100Z,994.17
2019-04-04T10:09:44.125Z,994.18
2019-04-04T10:10:44.156Z,994.14
2019-04-04T10:11:44.179Z,994.08
2019-04-04T10:12:44.210Z,994.11
2019-04-04T10:13:44.232Z,994.11
2019-04-04T10:14:44.263Z,994.11
2019-04-04T10:15:44.286Z,994.08
2019-04-04T10:17:44.344Z,994.06
2019-04-04T10:18:44.374Z,994.03
2019-04-04T10:19:44.398Z,994.07
2019-04-04T10:20:44.420Z,994.08
2019-04-04T10:21:44.452Z,994.1
2019-04-04T10:22:44.476Z,994.02
2019-04-04T10:23:44.502Z,994.09
2019-04-04T10:24:44.531Z,994.07
2019-04-04T10:25:44.552Z,994.04
2019-04-04T10:26:44.585Z,994.03
2019-04-04T10:27:44.611Z,994.04
2019-04-04T10:28:44.737Z,993.99
2019-04-04T10:29:44.665Z,994
2019-04-04T10:30:44.690Z,994.07
2019-04-04T10:31:44.727Z,994
2019-04-04T10:32:44.740Z,994.11
2019-04-04T10:33:44.768Z,994.01
2019-04-04T10:34:44.797Z,993.99
2019-04-04T10:35:44.819Z,994.01
2019-04-04T10:36:44.849Z,994.07
2019-04-04T10:37:44.874Z,994.09
2019-04-04T10:38:45.234Z,994.03
2019-04-04T10:39:44.924Z,994.02
2019-04-04T10:40:44.949Z,993.96
2019-04-04T10:41:44.979Z,993.97
2019-04-04T10:42:45.004Z,993.99
2019-04-04T10:43:45.031Z,994.01
2019-04-04T10:44:45.052Z,993.97
2019-04-04T10:45:45.083Z,994.01
2019-04-04T10:46:45.104Z,994.02
2019-04-04T10:47:45.129Z,993.95
2019-04-04T10:49:45.180Z,993.95
2019-04-04T10:50:45.210Z,993.94
2019-04-04T10:51:45.233Z,993.94
2019-04-04T10:52:45.261Z,993.97
2019-04-04T10:53:45.283Z,993.97
2019-04-04T10:54:45.312Z,993.86
2019-04-04T10:55:45.336Z,993.95
2019-04-04T10:56:45.357Z,993.93
2019-04-04T10:57:45.383Z,993.9
2019-04-04T10:58:45.412Z,993.91
2019-04-04T10:59:45.437Z,993.94
2019-04-04T11:00:45.463Z,993.94
2019-04-04T11:01:45.485Z,993.94
2019-04-04T11:02:45.512Z,993.93
2019-04-04T11:03:45.533Z,993.88
2019-04-04T11:05:45.588Z,993.89
2019-04-04T11:06:45.612Z,993.92
2019-04-04T11:07:45.633Z,993.92
2019-04-04T11:08:45.664Z,993.92
2019-04-04T11:09:45.683Z,993.94
2019-04-04T11:10:45.714Z,993.93
2019-04-04T11:11:45.738Z,993.92
2019-04-04T11:12:45.765Z,993.92
2019-04-04T11:13:45.783Z,993.86
2019-04-04T11:14:45.807Z,993.81
2019-04-04T11:15:45.841Z,993.82
2019-04-04T11:16:45.857Z,993.83
2019-04-04T11:17:45.887Z,993.86
2019-04-04T11:18:45.910Z,993.86
2019-04-04T11:19:45.938Z,993.86
2019-04-04T11:21:45.985Z,993.8
2019-04-04T11:22:46.005Z,993.78
2019-04-04T11:23:46.032Z,993.79
2019-04-04T11:24:46.053Z,993.79
2019-04-04T11:25:46.085Z,993.81
2019-04-04T11:26:46.104Z,993.77
2019-04-04T11:27:46.132Z,993.79
2019-04-04T11:28:46.153Z,993.74
2019-04-04T11:29:46.180Z,993.8
2019-04-04T11:30:46.203Z,993.82
2019-04-04T11:31:46.225Z,993.83
2019-04-04T11:32:48.775Z,993.84
2019-04-04T11:33:46.278Z,993.82
2019-04-04T11:34:52.850Z,993.83
2019-04-04T11:35:46.323Z,993.83
2019-04-04T11:37:46.375Z,993.9
2019-04-04T11:38:46.398Z,993.85
2019-04-04T11:39:54.320Z,993.86
2019-04-04T11:40:46.446Z,993.81
2019-04-04T11:41:46.474Z,993.84
2019-04-04T11:42:46.496Z,993.87
2019-04-04T11:43:46.523Z,993.92
2019-04-04T11:44:46.545Z,993.85
2019-04-04T11:45:46.568Z,993.8
2019-04-04T11:46:46.597Z,993.82
2019-04-04T11:47:46.623Z,993.76
2019-04-04T11:48:46.641Z,993.77
2019-04-04T11:49:46.670Z,993.81
2019-04-04T11:50:46.690Z,993.88
2019-04-04T11:52:46.743Z,993.8
2019-04-04T11:53:46.763Z,993.71
2019-04-04T11:54:46.792Z,993.8
2019-04-04T11:55:46.812Z,993.73
2019-04-04T11:56:46.841Z,993.73
2019-04-04T11:57:46.860Z,993.76
2019-04-04T11:58:46.889Z,993.74
2019-04-04T11:59:46.914Z,993.72
2019-04-04T12:00:46.933Z,993.71
2019-04-04T12:01:46.958Z,993.73
2019-04-04T12:02:46.983Z,993.78
2019-04-04T12:03:47.011Z,993.69
2019-04-04T12:04:47.032Z,993.72
2019-04-04T12:05:47.059Z,993.64
2019-04-04T12:06:47.085Z,993.65
2019-04-04T12:07:47.105Z,993.63
2019-04-04T12:08:47.129Z,993.71
2019-04-04T12:09:47.152Z,993.64
2019-04-04T12:10:47.188Z,993.62
2019-04-04T12:11:47.201Z,993.58
2019-04-04T12:12:47.230Z,993.56
2019-04-04T12:13:47.255Z,993.55
2019-04-04T12:14:47.280Z,993.57
2019-04-04T12:15:47.299Z,993.53
2019-04-04T12:16:47.331Z,993.59
2019-04-04T12:17:47.347Z,993.56
2019-04-04T12:18:47.376Z,993.61
2019-04-04T12:19:47.396Z,993.55
2019-04-04T12:20:47.430Z,993.58
2019-04-04T12:21:47.445Z,993.56
2019-04-04T12:22:47.473Z,993.57
2019-04-04T12:24:47.531Z,993.55
2019-04-04T12:25:47.542Z,993.54
2019-04-04T12:26:47.565Z,993.48
2019-04-04T12:27:47.595Z,993.63
2019-04-04T12:28:47.614Z,993.58
2019-04-04T12:29:47.643Z,993.62
2019-04-04T12:30:47.665Z,993.57
2019-04-04T12:31:47.691Z,993.65
2019-04-04T12:32:47.711Z,993.62
2019-04-04T12:33:47.735Z,993.51
2019-04-04T12:34:47.763Z,993.48
2019-04-04T12:35:47.783Z,993.55
2019-04-04T12:36:47.813Z,993.52
2019-04-04T12:37:47.831Z,993.52
2019-04-04T12:38:47.860Z,993.49
2019-04-04T12:40:47.905Z,993.59
2019-04-04T12:41:47.932Z,993.59
2019-04-04T12:42:47.952Z,993.61
2019-04-04T12:43:47.981Z,993.64
2019-04-04T12:44:48.000Z,993.54
2019-04-04T12:45:48.024Z,993.59
2019-04-04T12:46:48.062Z,993.54
2019-04-04T12:47:48.077Z,993.56
2019-04-04T12:48:48.098Z,993.56
2019-04-04T12:49:48.121Z,993.64
2019-04-04T12:50:48.515Z,993.56
2019-04-04T12:51:48.175Z,993.46
2019-04-04T12:52:48.295Z,993.45
2019-04-04T12:53:48.222Z,993.53
2019-04-04T12:54:48.242Z,993.53
2019-04-04T12:56:48.290Z,993.55
2019-04-04T12:57:48.315Z,993.51
2019-04-04T12:58:48.344Z,993.51
2019-04-04T12:59:48.363Z,993.55
2019-04-04T13:00:48.402Z,993.5
2019-04-04T13:01:48.412Z,993.5
2019-04-04T13:02:48.441Z,993.5
2019-04-04T13:03:48.460Z,993.51
2019-04-04T13:04:48.485Z,993.57
2019-04-04T13:05:48.509Z,993.47
2019-04-04T13:06:48.538Z,993.51
2019-04-04T13:07:48.562Z,993.48
2019-04-04T13:08:48.632Z,993.42
2019-04-04T13:09:48.606Z,993.51
2019-04-04T13:10:48.636Z,993.5
2019-04-04T13:13:48.704Z,993.41
2019-04-04T13:14:48.728Z,993.48